Benedict, North Dakota
Current Conditions -  °F | °C
As of 1:54 AM on Tuesday 21 Oct 2014 (Local Time) from KMOT Reporting Station
Clear Clear  
Wind Chill: 40°   Ceiling: Unl
Heat Index: 45°   Visibility: 10mi
Dew Point: 34°   Wind: 9mph
Humidity: 65%   Direction: 100°E
Pressure: 29.86"   Gusts: NA
Location:  47.83°N, 101.08°W
Report Text: KMOT 210654Z AUTO 10008KT 10SM CLR 07/01 A2986 RMK AO2 SLP115 T00720011
Loading
Personal Weather Stations






























Interactive Weather Map
Tropical Storm Tracking
New forecast layout! Learn more

10-Day Weather Forecast

Advertisements
Track Severe Weather on mobile